Time;durP1;ratioP1;P1;durP2;ratioP2;P2;SDS_P1;SDS_P2;PMS_P1;PMS_P2;Temp;Humidity;BMP_temperature;BMP_pressure;BME280_temperature;BME280_humidity;BME280_pressure;Samples;Min_cycle;Max_cycle;Signal;HPM_P1;HPM_P2
2022/05/03 00:01:37;;;;;;;13.07;11.77;;;;;;;9.01;91.14;95401.56;4976325;28;20223;-80
2022/05/03 00:04:10;;;;;;;13.03;11.83;;;;;;;9.03;90.98;95404.03;4975772;28;20208;-80
2022/05/03 00:06:49;;;;;;;13.73;12.20;;;;;;;9.00;90.99;95401.69;4992323;28;20198;-80
2022/05/03 00:09:22;;;;;;;11.93;10.73;;;;;;;8.96;89.96;95402.94;4976159;28;20215;-80
2022/05/03 00:12:03;;;;;;;12.60;11.40;;;;;;;8.89;90.83;95412.22;4975283;28;20183;-80
2022/05/03 00:14:43;;;;;;;11.87;10.73;;;;;;;8.84;91.38;95404.09;4956205;28;20227;-80
2022/05/03 00:17:10;;;;;;;11.07;10.00;;;;;;;8.76;91.19;95403.00;4992144;28;20200;-80
2022/05/03 00:19:36;;;;;;;12.80;11.07;;;;;;;8.73;91.16;95398.09;4957283;28;20192;-80
2022/05/03 00:22:01;;;;;;;11.27;10.07;;;;;;;8.71;91.16;95400.00;4956367;28;20700;-80
2022/05/03 00:24:27;;;;;;;12.70;11.50;;;;;;;8.74;91.87;95402.31;4955828;28;20271;-80
2022/05/03 00:26:53;;;;;;;13.57;12.17;;;;;;;8.77;92.51;95402.03;4972302;28;20661;-80
2022/05/03 00:29:18;;;;;;;15.07;12.80;;;;;;;8.80;92.72;95395.75;4953453;28;20190;-79
2022/05/03 00:31:44;;;;;;;13.50;12.17;;;;;;;8.83;92.96;95394.66;5012771;28;20201;-79
2022/05/03 00:34:10;;;;;;;13.10;11.87;;;;;;;8.80;92.66;95388.81;5015333;28;20222;-79
2022/05/03 00:36:36;;;;;;;12.60;11.40;;;;;;;8.93;92.40;95387.69;5016295;28;20261;-80
2022/05/03 00:39:01;;;;;;;13.27;11.97;;;;;;;8.90;92.45;95378.41;5035176;28;20182;-79
2022/05/03 00:41:51;;;;;;;14.30;12.80;;;;;;;8.99;93.18;95379.34;5035343;28;20670;-80
2022/05/03 00:47:08;;;;;;;13.00;11.80;;;;;;;9.06;92.04;95377.81;5033397;28;20232;-80
2022/05/03 00:49:42;;;;;;;13.47;12.17;;;;;;;9.12;92.05;95377.25;5015108;28;20206;-80
2022/05/03 00:52:38;;;;;;;13.00;11.77;;;;;;;9.15;92.10;95376.97;5015336;28;20182;-80
2022/05/03 00:55:27;;;;;;;14.30;12.50;;;;;;;9.25;91.68;95377.72;4954900;28;20252;-80
2022/05/03 00:58:00;;;;;;;13.57;11.73;;;;;;;9.29;91.02;95366.13;4972051;28;20181;-79
2022/05/03 01:00:27;;;;;;;13.90;12.53;;;;;;;9.24;91.00;95370.94;4954931;28;20264;-79
2022/05/03 01:03:11;;;;;;;12.60;11.50;;;;;;;9.20;90.89;95369.59;4971738;28;20912;-79
2022/05/03 01:06:05;;;;;;;13.00;11.63;;;;;;;9.11;91.33;95367.06;4939126;28;20254;-80
2022/05/03 01:08:36;;;;;;;12.40;11.13;;;;;;;9.06;91.01;95368.28;4957371;28;20277;-80
2022/05/03 01:11:30;;;;;;;13.87;11.83;;;;;;;9.03;91.05;95372.94;4955540;28;20686;-80
2022/05/03 01:14:17;;;;;;;11.77;10.73;;;;;;;9.00;90.94;95365.44;4939048;28;20312;-79
2022/05/03 01:16:58;;;;;;;12.23;11.03;;;;;;;8.98;91.45;95370.75;4955417;28;20534;-80
2022/05/03 01:19:45;;;;;;;11.90;10.80;;;;;;;8.95;92.09;95376.22;4955392;28;20196;-80
2022/05/03 01:22:31;;;;;;;12.70;11.40;;;;;;;8.90;91.71;95375.00;4971493;28;20203;-79
2022/05/03 01:25:21;;;;;;;12.27;11.03;;;;;;;8.86;91.50;95374.50;4970772;28;20216;-79
2022/05/03 01:27:59;;;;;;;12.20;10.60;;;;;;;8.78;91.82;95370.00;4938961;28;20192;-80
2022/05/03 01:30:30;;;;;;;12.60;11.33;;;;;;;8.73;91.99;95377.38;4955300;28;20211;-80
2022/05/03 01:33:02;;;;;;;13.07;11.63;;;;;;;8.65;92.26;95372.06;4987918;28;20195;-80
2022/05/03 01:35:37;;;;;;;14.87;12.03;;;;;;;8.68;92.18;95382.16;4997764;28;20206;-80
2022/05/03 01:38:06;;;;;;;12.07;10.80;;;;;;;8.67;92.85;95372.78;5014780;28;20239;-80
2022/05/03 01:40:51;;;;;;;10.93;9.93;;;;;;;8.65;92.28;95373.84;5013216;28;20233;-79
2022/05/03 01:43:38;;;;;;;13.23;10.37;;;;;;;8.54;92.46;95372.25;4998051;28;20175;-79
2022/05/03 01:46:24;;;;;;;14.00;10.87;;;;;;;8.49;92.29;95370.09;5014883;28;20209;-80
2022/05/03 01:52:06;;;;;;;11.97;10.77;;;;;;;8.39;92.08;95365.84;5017447;28;20190;-80
2022/05/03 01:55:12;;;;;;;10.83;9.73;;;;;;;8.34;92.24;95365.44;5014166;28;20207;-79
2022/05/03 01:58:01;;;;;;;11.97;10.03;;;;;;;8.40;91.87;95363.16;5014596;28;20270;-79
2022/05/03 02:00:27;;;;;;;12.00;10.80;;;;;;;8.44;91.51;95371.44;5032429;28;20185;-80
2022/05/03 02:03:19;;;;;;;13.27;10.40;;;;;;;8.43;91.35;95373.22;5014606;28;20576;-80
2022/05/03 02:05:49;;;;;;;12.17;10.97;;;;;;;8.40;91.39;95365.75;5014339;28;20225;-80
2022/05/03 02:08:19;;;;;;;11.70;10.50;;;;;;;8.41;91.30;95371.72;5014694;28;20167;-79
2022/05/03 02:10:47;;;;;;;11.90;10.50;;;;;;;8.38;90.94;95370.22;5032546;28;20202;-80
2022/05/03 02:13:25;;;;;;;11.30;10.20;;;;;;;8.35;91.21;95374.88;5032441;28;20659;-79
2022/05/03 02:15:52;;;;;;;11.70;10.60;;;;;;;8.30;91.22;95374.41;5013858;28;20245;-80
2022/05/03 02:18:43;;;;;;;12.67;11.47;;;;;;;8.31;91.47;95376.91;5014844;28;20190;-79
2022/05/03 02:21:13;;;;;;;11.57;10.30;;;;;;;8.26;91.72;95381.66;5015830;28;20178;-79
2022/05/03 02:24:02;;;;;;;13.03;11.57;;;;;;;8.26;92.12;95378.25;5017574;28;20628;-79
2022/05/03 02:26:46;;;;;;;12.77;11.47;;;;;;;8.21;91.78;95381.22;5018089;28;20597;-79
2022/05/03 02:29:14;;;;;;;12.50;11.30;;;;;;;8.10;92.47;95382.19;5017966;28;20182;-79
2022/05/03 02:31:46;;;;;;;12.07;10.67;;;;;;;8.00;93.01;95378.78;5001411;28;20192;-79
2022/05/03 02:34:18;;;;;;;12.47;11.30;;;;;;;7.94;93.15;95387.09;5017573;28;20202;-79
2022/05/03 02:36:55;;;;;;;12.40;11.20;;;;;;;7.93;93.23;95377.69;5002014;28;20190;-80
2022/05/03 02:39:26;;;;;;;12.27;11.03;;;;;;;7.91;93.26;95377.03;5017617;28;20236;-79
2022/05/03 02:41:56;;;;;;;12.70;11.50;;;;;;;7.87;93.52;95378.25;5001234;28;20269;-79
2022/05/03 02:44:21;;;;;;;12.07;10.97;;;;;;;7.81;93.74;95376.22;5017333;28;20666;-79
2022/05/03 02:46:57;;;;;;;13.73;12.43;;;;;;;7.80;94.58;95370.22;5001404;28;20190;-79
2022/05/03 02:50:00;;;;;;;13.27;11.93;;;;;;;7.83;94.88;95372.53;5017424;28;20216;-80
2022/05/03 02:52:32;;;;;;;13.60;12.20;;;;;;;7.83;94.93;95371.72;5015385;28;20200;-79
2022/05/03 02:55:06;;;;;;;14.27;12.63;;;;;;;7.91;94.70;95375.25;5016619;28;20271;-80
2022/05/03 02:57:41;;;;;;;14.07;12.77;;;;;;;7.89;94.94;95366.81;5001392;28;20182;-79
2022/05/03 03:03:40;;;;;;;14.17;12.77;;;;;;;7.83;95.79;95361.38;5020063;28;20612;-79
2022/05/03 03:06:16;;;;;;;14.33;12.83;;;;;;;7.88;97.86;95356.63;4974755;28;20194;-79
2022/05/03 03:08:45;;;;;;;15.70;12.73;;;;;;;7.95;96.87;95360.28;5017067;28;20173;-79
2022/05/03 03:11:29;;;;;;;13.83;12.47;;;;;;;7.95;96.54;95360.28;5000810;28;20224;-80
2022/05/03 03:14:19;;;;;;;13.87;12.57;;;;;;;7.92;96.40;95356.19;5016581;28;20210;-80
2022/05/03 03:16:52;;;;;;;14.20;12.83;;;;;;;7.98;95.95;95360.03;5016922;28;20568;-80
2022/05/03 03:19:55;;;;;;;16.57;12.80;;;;;;;7.84;96.29;95352.66;5034764;28;20269;-79
2022/05/03 03:22:21;;;;;;;13.07;11.67;;;;;;;7.85;96.08;95356.88;5016536;28;20174;-79
2022/05/03 03:24:48;;;;;;;15.43;12.03;;;;;;;7.92;96.32;95353.63;5015939;28;20205;-80
2022/05/03 03:27:14;;;;;;;12.07;10.97;;;;;;;7.98;96.10;95349.69;5000883;28;20220;-79
2022/05/03 03:29:40;;;;;;;12.73;11.17;;;;;;;7.97;95.95;95355.00;5000596;28;20265;-79
2022/05/03 03:32:07;;;;;;;13.00;11.80;;;;;;;7.90;95.86;95360.69;5000749;28;20186;-80
2022/05/03 03:34:32;;;;;;;13.43;12.10;;;;;;;7.88;96.20;95352.25;5015860;28;20642;-80
2022/05/03 03:37:01;;;;;;;14.47;12.97;;;;;;;7.98;95.40;95354.84;5000764;28;20193;-79
2022/05/03 03:39:31;;;;;;;15.43;13.10;;;;;;;7.83;95.96;95359.59;5017468;28;20175;-80
2022/05/03 03:42:01;;;;;;;14.27;12.77;;;;;;;7.75;96.44;95356.06;5000277;28;20666;-79
2022/05/03 03:44:26;;;;;;;14.30;12.80;;;;;;;7.77;96.30;95354.16;4999552;28;20604;-79
2022/05/03 03:46:52;;;;;;;13.93;12.53;;;;;;;7.75;96.28;95356.06;5017731;28;20179;-80
2022/05/03 03:49:18;;;;;;;15.30;12.23;;;;;;;7.66;96.43;95358.50;5018390;28;20592;-79
2022/05/03 03:51:44;;;;;;;14.33;12.93;;;;;;;7.65;96.43;95362.03;5017953;28;20179;-80
2022/05/03 03:54:10;;;;;;;13.93;12.53;;;;;;;7.65;96.59;95353.47;5022784;28;20221;-79
2022/05/03 03:56:35;;;;;;;14.50;13.10;;;;;;;7.62;96.90;95362.31;5019222;28;21573;-79
2022/05/03 03:59:01;;;;;;;14.93;13.43;;;;;;;7.61;96.45;95365.84;5016751;28;20271;-80
2022/05/03 04:01:27;;;;;;;15.00;13.00;;;;;;;7.59;96.27;95362.56;5035385;28;20205;-79
2022/05/03 04:03:53;;;;;;;16.00;13.67;;;;;;;7.62;96.17;95361.50;5034349;28;20686;-79
2022/05/03 04:06:18;;;;;;;15.30;13.70;;;;;;;7.71;96.76;95363.28;5034826;28;20181;-79
2022/05/03 04:08:43;;;;;;;15.93;13.80;;;;;;;7.79;96.67;95366.00;5035594;28;20642;-80
2022/05/03 04:11:18;;;;;;;16.47;14.87;;;;;;;7.89;98.03;95358.25;5017895;28;20231;-79
2022/05/03 04:13:44;;;;;;;17.40;15.60;;;;;;;8.07;97.55;95361.78;5034377;28;20637;-79
2022/05/03 04:16:10;;;;;;;15.53;13.97;;;;;;;8.14;96.80;95364.66;5034959;28;20185;-78
2022/05/03 04:18:45;;;;;;;17.83;14.70;;;;;;;8.29;96.28;95367.63;5036489;28;20186;-78
2022/05/03 04:21:14;;;;;;;16.23;14.50;;;;;;;8.41;95.65;95367.38;5037173;28;20178;-78
2022/05/03 04:23:40;;;;;;;16.13;14.60;;;;;;;8.49;95.26;95380.44;5020135;28;20185;-79
2022/05/03 04:26:05;;;;;;;16.17;14.50;;;;;;;8.55;94.42;95373.88;5036535;28;20227;-81
2022/05/03 04:28:31;;;;;;;16.50;14.80;;;;;;;8.61;94.37;95375.91;5036091;28;20916;-81
2022/05/03 04:30:56;;;;;;;16.67;14.77;;;;;;;8.68;94.17;95379.59;5036103;28;20178;-81
2022/05/03 04:33:21;;;;;;;15.53;14.03;;;;;;;8.72;93.97;95385.28;5019276;28;20197;-80
2022/05/03 04:35:47;;;;;;;16.97;14.07;;;;;;;8.83;93.20;95379.13;5034824;28;20654;-80
2022/05/03 04:38:12;;;;;;;17.33;14.90;;;;;;;8.83;93.49;95379.94;5052646;28;20174;-80
2022/05/03 04:40:37;;;;;;;16.43;14.73;;;;;;;8.96;92.43;95385.63;5035168;28;20189;-80
2022/05/03 04:43:03;;;;;;;16.47;14.10;;;;;;;9.06;92.03;95377.81;5018574;28;20627;-80
2022/05/03 04:45:28;;;;;;;17.03;15.23;;;;;;;9.19;91.74;95386.09;5017833;28;20219;-81
2022/05/03 04:47:53;;;;;;;16.37;14.67;;;;;;;9.21;90.86;95386.78;5018400;28;20198;-81
2022/05/03 04:50:18;;;;;;;16.23;14.57;;;;;;;9.30;90.73;95380.72;5035094;28;20188;-81
2022/05/03 04:52:44;;;;;;;15.17;13.13;;;;;;;9.39;90.55;95388.59;5035211;28;20186;-78
2022/05/03 04:55:09;;;;;;;15.17;13.57;;;;;;;9.33;89.41;95387.38;5035109;28;20218;-79
2022/05/03 04:57:34;;;;;;;15.50;14.00;;;;;;;9.37;89.66;95383.56;5034229;28;20200;-80
2022/05/03 05:00:00;;;;;;;15.63;13.97;;;;;;;9.45;89.59;95385.41;5034558;28;20195;-81
2022/05/03 05:02:26;;;;;;;16.20;13.80;;;;;;;9.49;89.17;95391.94;5016640;28;20201;-81
2022/05/03 05:04:51;;;;;;;14.70;13.27;;;;;;;9.62;89.41;95390.63;5015406;28;20260;-81
2022/05/03 05:07:16;;;;;;;14.83;13.23;;;;;;;9.67;88.87;95387.63;5016194;28;20257;-81
2022/05/03 05:10:23;;;;;;;14.70;13.27;;;;;;;9.66;88.12;95383.41;5017519;28;20194;-80
2022/05/03 05:12:28;;;;;;;14.50;13.00;;;;;;;9.76;88.48;95381.56;5051045;28;20177;-80
2022/05/03 05:14:53;;;;;;;16.00;14.20;;;;;;;9.82;88.98;95385.34;5053190;28;20217;-81
2022/05/03 05:17:19;;;;;;;13.53;12.30;;;;;;;10.03;88.75;95391.06;5037106;28;20279;-80
2022/05/03 05:19:44;;;;;;;14.03;12.63;;;;;;;10.16;88.42;95388.13;5071946;28;20589;-80
2022/05/03 05:22:09;;;;;;;14.40;13.00;;;;;;;10.21;86.90;95393.66;5053739;28;20231;-80
2022/05/03 05:24:35;;;;;;;14.50;13.00;;;;;;;10.28;87.12;95391.31;5052586;28;20209;-80
2022/05/03 05:27:00;;;;;;;14.00;12.63;;;;;;;10.48;85.88;95401.38;5037414;28;20191;-80
2022/05/03 05:29:25;;;;;;;14.27;12.30;;;;;;;10.62;84.73;95399.22;5037298;28;20579;-79
2022/05/03 05:31:50;;;;;;;13.47;12.07;;;;;;;10.85;84.70;95396.91;5053560;28;20231;-80
2022/05/03 05:34:16;;;;;;;13.10;11.80;;;;;;;10.92;83.66;95403.94;5036013;28;20212;-80
2022/05/03 05:36:42;;;;;;;14.20;12.80;;;;;;;11.07;83.16;95399.00;5053809;28;20271;-80
2022/05/03 05:39:07;;;;;;;13.20;11.60;;;;;;;11.14;83.24;95402.63;5037214;28;20186;-80
2022/05/03 05:41:33;;;;;;;12.67;11.43;;;;;;;11.40;82.42;95407.00;5037365;28;20608;-80
2022/05/03 05:43:58;;;;;;;12.97;11.67;;;;;;;11.32;82.32;95407.75;5052123;28;20205;-79
2022/05/03 05:46:23;;;;;;;14.13;12.00;;;;;;;11.38;82.26;95403.69;5037525;28;20707;-80
2022/05/03 05:48:49;;;;;;;13.10;11.50;;;;;;;11.46;83.11;95401.13;5053178;28;20566;-81
2022/05/03 05:51:15;;;;;;;14.93;11.77;;;;;;;11.70;82.70;95400.44;5047820;28;20185;-80
2022/05/03 05:53:40;;;;;;;12.67;11.40;;;;;;;11.88;82.67;95409.78;5017382;28;20578;-79
2022/05/03 05:56:07;;;;;;;12.30;10.33;;;;;;;12.06;81.46;95409.66;5052851;28;20193;-80
2022/05/03 05:58:32;;;;;;;12.47;11.20;;;;;;;12.15;81.11;95415.69;5057579;28;20173;-82
2022/05/03 06:00:57;;;;;;;12.03;10.90;;;;;;;12.44;79.98;95416.03;5038309;28;20208;-79
2022/05/03 06:03:24;;;;;;;12.40;11.17;;;;;;;12.62;80.31;95418.47;5057098;28;20691;-79
2022/05/03 06:05:49;;;;;;;11.33;10.13;;;;;;;13.20;78.86;95414.88;5040130;28;20220;-80
2022/05/03 06:08:15;;;;;;;11.30;10.13;;;;;;;13.88;74.81;95416.91;5057048;28;20181;-79
2022/05/03 06:10:40;;;;;;;9.67;8.77;;;;;;;14.14;72.18;95418.41;5040844;28;20645;-79
2022/05/03 06:13:06;;;;;;;10.17;9.17;;;;;;;14.75;72.34;95424.50;5040343;28;20636;-79
2022/05/03 06:15:31;;;;;;;9.60;8.70;;;;;;;17.08;65.52;95435.03;5056783;28;20694;-79
2022/05/03 06:17:56;;;;;;;8.73;8.03;;;;;;;18.55;56.23;95432.94;5057392;28;20196;-81
2022/05/03 06:20:21;;;;;;;9.25;8.30;;;;;;;19.01;54.00;95426.94;5041198;28;20188;-80
2022/05/03 06:22:47;;;;;;;10.23;9.23;;;;;;;20.12;47.97;95429.53;5045565;28;20590;-79
2022/05/03 06:25:12;;;;;;;9.73;8.82;;;;;;;20.48;48.57;95434.25;5023818;28;20688;-80
2022/05/03 06:27:38;;;;;;;9.88;8.88;;;;;;;21.41;45.22;95434.41;5040601;28;20189;-81
2022/05/03 06:30:04;;;;;;;10.38;8.77;;;;;;;21.97;44.48;95432.63;5020971;28;20595;-82
2022/05/03 06:32:30;;;;;;;16.15;12.02;;;;;;;23.42;39.66;95433.25;5020968;28;20242;-80
2022/05/03 06:34:56;;;;;;;11.25;9.52;;;;;;;22.82;40.60;95430.72;5022757;28;20274;-80
2022/05/03 06:37:21;;;;;;;8.10;7.35;;;;;;;24.35;38.11;95438.69;5036682;28;20192;-79
2022/05/03 06:39:46;;;;;;;8.25;7.40;;;;;;;24.69;35.41;95440.38;5037759;28;20180;-82
2022/05/03 06:42:11;;;;;;;8.35;7.63;;;;;;;24.03;36.15;95441.75;5022726;28;20192;-80
2022/05/03 06:44:37;;;;;;;8.68;7.97;;;;;;;24.21;35.94;95438.94;5046798;28;20217;-83
2022/05/03 06:47:03;;;;;;;8.32;7.53;;;;;;;23.99;36.06;95446.69;5080013;28;20161;-82
2022/05/03 06:49:28;;;;;;;7.93;7.18;;;;;;;24.19;36.01;95440.19;5060857;28;20721;-82
2022/05/03 06:51:53;;;;;;;7.32;6.60;;;;;;;23.91;37.56;95443.59;5060491;28;20219;-82
2022/05/03 06:54:19;;;;;;;8.48;7.78;;;;;;;23.38;36.23;95437.38;5054424;28;20696;-81
2022/05/03 06:56:44;;;;;;;7.80;7.20;;;;;;;22.91;37.42;95430.41;5029425;28;20182;-81
2022/05/03 06:59:09;;;;;;;7.03;6.40;;;;;;;23.63;37.10;95436.38;5059438;28;20185;-81
2022/05/03 07:01:35;;;;;;;6.45;5.95;;;;;;;25.13;31.97;95444.09;5040306;28;20692;-82
2022/05/03 07:04:01;;;;;;;6.45;5.90;;;;;;;24.57;34.49;95443.09;5041132;28;20224;-81
2022/05/03 07:06:26;;;;;;;6.88;5.43;;;;;;;23.07;36.75;95445.66;5041175;28;20184;-82
2022/05/03 07:08:51;;;;;;;5.13;4.63;;;;;;;25.34;33.31;95447.88;5041899;28;20177;-81
2022/05/03 07:11:17;;;;;;;6.43;5.82;;;;;;;23.93;35.29;95450.28;5041097;28;20189;-81
2022/05/03 07:13:43;;;;;;;5.22;4.82;;;;;;;22.83;36.84;95450.84;5034625;28;20185;-81
2022/05/03 07:16:08;;;;;;;5.15;4.18;;;;;;;22.80;35.54;95456.59;5022927;28;20208;-81
2022/05/03 07:24:02;;;;;;;6.25;4.60;;;;;;;21.02;40.64;95466.38;5057156;28;20224;-80
2022/05/03 07:26:27;;;;;;;5.15;4.60;;;;;;;22.46;35.87;95462.56;5042284;28;20220;-80
2022/05/03 07:28:52;;;;;;;6.88;4.65;;;;;;;20.60;39.61;95463.44;5020797;28;20239;-81
2022/05/03 07:31:21;;;;;;;4.72;4.32;;;;;;;20.13;42.92;95451.44;5040530;28;20611;-80
2022/05/03 07:33:47;;;;;;;5.10;4.50;;;;;;;20.54;41.22;95462.44;5051404;28;20558;-80
2022/05/03 07:36:13;;;;;;;5.38;4.88;;;;;;;20.36;43.17;95454.41;5055895;28;20189;-79
2022/05/03 07:38:39;;;;;;;5.10;4.60;;;;;;;20.02;42.81;95463.44;5038889;28;20169;-80
2022/05/03 07:41:06;;;;;;;5.68;5.18;;;;;;;19.29;44.67;95463.56;5056005;28;20185;-79
2022/05/03 07:43:32;;;;;;;5.45;4.85;;;;;;;18.96;44.08;95466.19;5056330;28;20623;-80
2022/05/03 07:45:57;;;;;;;5.55;5.05;;;;;;;18.27;47.85;95464.59;5056065;28;20252;-80
2022/05/03 07:48:22;;;;;;;6.38;5.85;;;;;;;17.85;49.09;95462.22;5057628;28;20213;-80
2022/05/03 07:50:48;;;;;;;5.78;5.28;;;;;;;17.87;51.03;95470.72;5048356;28;20259;-80
2022/05/03 07:53:13;;;;;;;5.82;5.32;;;;;;;17.45;51.68;95473.25;5039437;28;20216;-81
2022/05/03 07:55:39;;;;;;;6.53;5.93;;;;;;;17.72;51.78;95479.50;5040254;28;20280;-79
2022/05/03 07:58:05;;;;;;;6.55;5.40;;;;;;;17.61;53.05;95473.97;5036741;28;20180;-80
2022/05/03 08:00:30;;;;;;;6.10;5.55;;;;;;;17.28;53.68;95474.53;5019072;28;20269;-79
2022/05/03 08:02:55;;;;;;;4.80;4.32;;;;;;;17.73;53.14;95468.00;5035796;28;20709;-79
2022/05/03 08:05:21;;;;;;;6.50;5.90;;;;;;;17.24;52.31;95479.38;5034395;28;20255;-79
2022/05/03 08:07:47;;;;;;;5.00;4.50;;;;;;;17.46;51.36;95476.69;5055194;28;20185;-79
2022/05/03 08:10:12;;;;;;;6.00;5.43;;;;;;;16.98;53.75;95473.91;5053727;28;20215;-79
2022/05/03 08:12:38;;;;;;;5.30;4.80;;;;;;;17.12;53.39;95477.44;5018220;28;20720;-79
2022/05/03 08:15:04;;;;;;;5.32;4.82;;;;;;;17.43;53.76;95480.50;5052369;28;20209;-80
2022/05/03 08:17:30;;;;;;;5.45;4.95;;;;;;;17.31;55.42;95476.78;5032768;28;20192;-79
2022/05/03 08:19:56;;;;;;;5.43;4.93;;;;;;;17.83;52.82;95480.78;5054546;28;20193;-80
2022/05/03 08:22:21;;;;;;;6.10;4.90;;;;;;;18.13;51.42;95480.53;5055321;28;20260;-81
2022/05/03 08:24:46;;;;;;;5.25;4.75;;;;;;;17.84;52.46;95479.75;5054894;28;20629;-80
2022/05/03 08:27:12;;;;;;;6.00;5.43;;;;;;;17.67;54.09;95491.56;5038862;28;20217;-80
2022/05/03 08:29:37;;;;;;;4.53;4.20;;;;;;;18.18;50.10;95484.16;5055631;28;20184;-80
2022/05/03 08:32:03;;;;;;;4.90;4.40;;;;;;;17.87;50.12;95486.47;5035796;28;20196;-80
2022/05/03 08:34:29;;;;;;;5.07;4.57;;;;;;;18.26;47.70;95485.81;5037566;28;20287;-80
2022/05/03 08:42:22;;;;;;;4.32;3.92;;;;;;;18.46;46.45;95491.16;5027740;28;20719;-79
2022/05/03 08:44:48;;;;;;;6.70;4.93;;;;;;;18.50;44.60;95498.47;5038404;28;20209;-79
2022/05/03 08:47:16;;;;;;;4.70;4.15;;;;;;;18.68;45.76;95495.28;5051158;28;20261;-80
2022/05/03 08:50:01;;;;;;;3.92;3.63;;;;;;;19.12;45.55;95493.94;5056632;28;20188;-80
2022/05/03 08:52:28;;;;;;;4.65;4.25;;;;;;;18.31;45.82;95493.94;5010549;28;20177;-80
2022/05/03 08:54:55;;;;;;;5.05;4.55;;;;;;;18.79;45.35;95493.91;5054466;28;20285;-80
2022/05/03 08:57:21;;;;;;;7.50;3.95;;;;;;;18.78;46.24;95492.28;5037301;28;20181;-80
2022/05/03 08:59:50;;;;;;;6.95;4.93;;;;;;;18.58;46.99;95492.22;5052372;28;20188;-79
2022/05/03 09:02:15;;;;;;;6.47;5.15;;;;;;;17.98;49.88;95489.34;5039836;28;20205;-80
2022/05/03 09:04:41;;;;;;;6.63;5.53;;;;;;;18.54;49.14;95488.34;5054921;28;20248;-80
2022/05/03 09:07:19;;;;;;;5.82;4.82;;;;;;;18.63;49.33;95484.53;5044795;28;20182;-79
2022/05/03 09:09:44;;;;;;;5.72;5.20;;;;;;;18.51;52.79;95483.50;5019330;28;20733;-80
2022/05/03 09:12:21;;;;;;;5.55;5.05;;;;;;;18.78;50.18;95490.47;5055498;28;20177;-80
2022/05/03 09:14:46;;;;;;;7.07;5.60;;;;;;;19.19;47.92;95486.88;5038265;28;20345;-80
2022/05/03 09:17:12;;;;;;;6.20;5.40;;;;;;;18.75;49.34;95490.06;5037159;28;20177;-81
2022/05/03 09:19:37;;;;;;;5.15;4.53;;;;;;;19.27;47.65;95489.31;5034700;28;20701;-82
2022/05/03 09:24:52;;;;;;;5.95;4.70;;;;;;;19.58;45.03;95493.16;5048738;28;20310;-81
2022/05/03 09:27:18;;;;;;;8.52;5.35;;;;;;;19.81;45.02;95504.06;5020081;28;20185;-82
2022/05/03 09:30:05;;;;;;;5.15;4.75;;;;;;;19.48;45.78;95493.53;5015464;28;20200;-80
2022/05/03 09:32:35;;;;;;;5.85;5.32;;;;;;;19.67;44.04;95489.28;5037057;28;20174;-81
2022/05/03 09:35:01;;;;;;;6.35;5.53;;;;;;;19.78;43.99;95486.00;5056058;28;20268;-81
2022/05/03 09:37:42;;;;;;;6.70;5.28;;;;;;;19.34;45.17;95487.44;5024222;28;20782;-81
2022/05/03 09:40:09;;;;;;;4.95;4.45;;;;;;;19.94;43.53;95496.13;5040276;28;20193;-80
2022/05/03 09:42:36;;;;;;;5.60;5.07;;;;;;;20.07;43.32;95490.81;5022328;28;20596;-81
2022/05/03 09:45:03;;;;;;;4.55;4.13;;;;;;;20.14;40.37;95487.31;5020057;28;20217;-82
2022/05/03 09:47:31;;;;;;;7.65;5.15;;;;;;;20.20;42.01;95483.88;5057655;28;20272;-81
2022/05/03 09:49:57;;;;;;;5.78;5.05;;;;;;;19.85;44.12;95491.28;5022161;28;20217;-81
2022/05/03 09:52:27;;;;;;;4.18;3.80;;;;;;;20.12;41.41;95481.47;5037886;28;20181;-81
2022/05/03 09:54:53;;;;;;;6.30;4.28;;;;;;;19.91;40.33;95485.19;5037564;28;20682;-82
2022/05/03 09:57:23;;;;;;;4.47;3.92;;;;;;;20.05;43.43;95482.31;5050130;28;20211;-81
2022/05/03 09:59:50;;;;;;;4.63;4.00;;;;;;;20.13;43.29;95483.88;5039077;28;20196;-81
2022/05/03 10:02:17;;;;;;;6.22;4.55;;;;;;;20.11;44.46;95483.28;5057606;28;20268;-80
2022/05/03 10:04:44;;;;;;;4.85;4.40;;;;;;;20.47;43.25;95481.97;5056932;28;20264;-81
2022/05/03 10:07:09;;;;;;;7.32;5.38;;;;;;;20.26;43.73;95481.22;5057803;28;20177;-81
2022/05/03 10:09:35;;;;;;;5.63;4.95;;;;;;;19.04;44.89;95473.91;5057303;28;20185;-81
2022/05/03 10:12:00;;;;;;;5.80;4.55;;;;;;;18.82;44.85;95473.28;5057191;28;20189;-81
2022/05/03 10:14:27;;;;;;;4.40;4.00;;;;;;;18.45;47.82;95468.50;5040087;28;20306;-81
2022/05/03 10:22:20;;;;;;;4.57;4.18;;;;;;;17.85;49.15;95467.47;5025474;28;20207;-81
2022/05/03 10:24:55;;;;;;;5.07;4.45;;;;;;;17.39;49.11;95479.25;5035820;28;20292;-80
2022/05/03 10:27:25;;;;;;;5.50;4.82;;;;;;;17.67;47.30;95481.88;5036129;28;20242;-79
2022/05/03 10:30:20;;;;;;;4.65;4.25;;;;;;;17.76;47.87;95470.25;5050881;28;20181;-81
2022/05/03 10:32:45;;;;;;;4.03;3.72;;;;;;;17.56;48.45;95469.28;5028526;28;20263;-82
2022/05/03 10:35:33;;;;;;;4.90;3.80;;;;;;;17.92;46.53;95469.09;5024779;28;20784;-81
2022/05/03 10:37:59;;;;;;;5.05;3.65;;;;;;;18.38;44.61;95457.97;4972987;28;20794;-80
2022/05/03 10:40:30;;;;;;;5.00;3.97;;;;;;;18.44;42.44;95464.25;5000741;28;20207;-81
2022/05/03 10:43:04;;;;;;;4.85;4.45;;;;;;;18.35;45.63;95455.72;4974476;28;20701;-81
2022/05/03 10:45:30;;;;;;;4.78;4.38;;;;;;;18.57;47.07;95456.41;4971232;28;20222;-82
2022/05/03 10:47:55;;;;;;;6.78;5.13;;;;;;;18.58;46.05;95458.03;4988194;28;20689;-81
2022/05/03 10:50:22;;;;;;;6.20;5.07;;;;;;;17.87;48.52;95449.69;4992208;28;20727;-82
2022/05/03 10:53:08;;;;;;;4.63;4.25;;;;;;;17.60;47.80;95464.47;4983866;28;20383;-82
2022/05/03 10:55:37;;;;;;;5.90;5.35;;;;;;;17.37;48.06;95460.28;4967866;28;20237;-82
2022/05/03 10:58:20;;;;;;;4.93;4.53;;;;;;;17.45;48.24;95459.31;4973629;28;20697;-82
2022/05/03 11:01:06;;;;;;;5.85;3.83;;;;;;;17.39;47.56;95453.00;4975925;28;20187;-81
2022/05/03 11:03:34;;;;;;;4.18;3.85;;;;;;;17.62;43.67;95450.13;4979149;28;20192;-82
2022/05/03 11:06:26;;;;;;;6.18;4.07;;;;;;;18.06;45.75;95451.59;4974835;28;20179;-82
2022/05/03 11:08:57;;;;;;;3.92;3.53;;;;;;;18.13;44.96;95446.38;4974201;28;20628;-81
2022/05/03 11:11:43;;;;;;;3.95;3.50;;;;;;;18.44;43.64;95445.84;4989793;28;20183;-81
2022/05/03 11:14:18;;;;;;;4.90;3.65;;;;;;;18.62;43.76;95439.00;4979342;28;20204;-81
2022/05/03 11:17:01;;;;;;;3.80;3.50;;;;;;;18.55;43.47;95443.47;5076026;28;20188;-81
2022/05/03 11:19:27;;;;;;;4.75;3.38;;;;;;;19.37;42.48;95433.59;5050410;28;20189;-81
2022/05/03 11:21:52;;;;;;;5.80;3.40;;;;;;;19.55;41.70;95431.13;5048328;28;20264;-81
2022/05/03 11:24:18;;;;;;;4.30;3.63;;;;;;;19.68;39.16;95436.38;5073810;28;20216;-81
2022/05/03 11:26:43;;;;;;;4.15;3.00;;;;;;;19.78;39.57;95435.94;5074818;28;20189;-81
2022/05/03 11:29:11;;;;;;;3.80;3.20;;;;;;;20.00;40.26;95424.13;5039623;28;20283;-79
2022/05/03 11:31:37;;;;;;;3.15;2.95;;;;;;;19.79;38.38;95429.69;5056487;28;20196;-80
2022/05/03 11:34:03;;;;;;;4.82;3.22;;;;;;;20.43;37.87;95420.09;5055280;28;20200;-81
2022/05/03 11:36:29;;;;;;;3.67;3.20;;;;;;;20.58;36.98;95426.72;5039335;28;20181;-81
2022/05/03 11:38:55;;;;;;;2.90;2.70;;;;;;;20.43;37.08;95423.56;5038225;28;20219;-81
2022/05/03 11:41:21;;;;;;;4.13;2.95;;;;;;;20.22;36.84;95423.81;5056457;28;20260;-81
2022/05/03 11:43:47;;;;;;;3.70;3.40;;;;;;;20.30;37.75;95420.94;5038080;28;20225;-80
2022/05/03 11:46:17;;;;;;;4.10;3.63;;;;;;;20.36;39.14;95420.91;5026005;28;20269;-81
2022/05/03 11:48:43;;;;;;;4.90;4.10;;;;;;;20.18;39.86;95417.38;5056849;28;20177;-80
2022/05/03 11:56:37;;;;;;;6.13;5.53;;;;;;;18.89;43.22;95421.44;5058173;28;20264;-80
2022/05/03 11:59:03;;;;;;;5.00;4.55;;;;;;;18.82;45.00;95420.66;5038531;28;20204;-80
2022/05/03 12:01:32;;;;;;;5.18;4.68;;;;;;;18.64;46.23;95418.59;5038795;28;20697;-79
2022/05/03 12:03:58;;;;;;;5.05;4.55;;;;;;;18.53;45.86;95423.63;5038039;28;20204;-80
2022/05/03 12:06:34;;;;;;;5.13;4.10;;;;;;;18.05;46.83;95413.19;5038837;28;20185;-80
2022/05/03 12:08:59;;;;;;;4.88;4.30;;;;;;;17.87;46.70;95411.09;5052745;28;20208;-79
2022/05/03 12:11:25;;;;;;;5.85;4.68;;;;;;;17.43;47.64;95419.31;5054862;28;20224;-84
2022/05/03 12:13:50;;;;;;;5.45;4.95;;;;;;;17.67;47.44;95407.53;5037266;28;20201;-80
2022/05/03 12:16:21;;;;;;;5.22;4.72;;;;;;;17.64;48.91;95413.16;5037585;28;20235;-82